createdAt,value
2022-08-03T00:02:48.455Z,2.15
2022-08-03T00:08:13.635Z,2.08
2022-08-03T00:13:43.295Z,2.25
2022-08-03T00:19:06.939Z,2.17
2022-08-03T00:24:32.349Z,2.00
2022-08-03T00:29:59.718Z,2.00
2022-08-03T00:35:36.777Z,2.17
2022-08-03T00:41:02.324Z,2.03
2022-08-03T00:46:25.997Z,2.38
2022-08-03T00:51:49.851Z,2.28
2022-08-03T00:57:14.920Z,2.20
2022-08-03T01:02:40.146Z,2.35
2022-08-03T01:08:09.250Z,2.40
2022-08-03T01:14:01.314Z,2.20
2022-08-03T01:19:42.666Z,2.70
2022-08-03T01:25:11.235Z,2.60
2022-08-03T01:30:39.105Z,3.08
2022-08-03T01:36:06.435Z,2.58
2022-08-03T01:41:34.199Z,2.85
2022-08-03T01:47:00.833Z,2.67
2022-08-03T01:52:25.926Z,2.58
2022-08-03T01:58:05.785Z,2.90
2022-08-03T02:03:32.987Z,2.97
2022-08-03T02:08:57.890Z,2.75
2022-08-03T02:14:23.432Z,2.92
2022-08-03T02:19:49.816Z,2.85
2022-08-03T02:25:15.614Z,3.10
2022-08-03T02:30:42.333Z,3.13
2022-08-03T02:36:10.004Z,4.10
2022-08-03T02:41:38.171Z,3.70
2022-08-03T02:47:06.895Z,3.78
2022-08-03T02:52:34.360Z,3.78
2022-08-03T02:58:01.458Z,3.58
2022-08-03T03:03:26.513Z,4.10
2022-08-03T03:08:59.511Z,4.07
2022-08-03T03:19:58.594Z,3.45
2022-08-03T03:25:24.805Z,4.50
2022-08-03T03:30:52.629Z,4.05
2022-08-03T03:36:18.470Z,4.80
2022-08-03T03:41:44.487Z,4.97
2022-08-03T03:47:08.359Z,5.10
2022-08-03T03:52:33.269Z,4.95
2022-08-03T03:57:58.394Z,5.40
2022-08-03T04:03:22.135Z,5.55
2022-08-03T04:09:15.387Z,5.32
2022-08-03T04:14:42.062Z,5.03
2022-08-03T04:20:07.637Z,6.05
2022-08-03T04:25:33.853Z,5.65
2022-08-03T04:31:00.044Z,5.28
2022-08-03T04:36:27.050Z,5.65
2022-08-03T04:42:07.136Z,4.88
2022-08-03T04:47:35.275Z,4.82
2022-08-03T04:52:58.912Z,4.70
2022-08-03T04:58:22.571Z,6.05
2022-08-03T05:03:47.654Z,5.20
2022-08-03T05:09:11.291Z,5.28
2022-08-03T05:14:37.053Z,5.00
2022-08-03T05:20:04.017Z,5.68
2022-08-03T05:25:27.981Z,6.30
2022-08-03T05:30:51.791Z,5.25
2022-08-03T05:36:17.133Z,5.28
2022-08-03T05:41:41.416Z,5.18
2022-08-03T05:47:05.109Z,5.05
2022-08-03T05:52:30.161Z,5.32
2022-08-03T05:57:55.258Z,5.15
2022-08-03T06:03:20.600Z,4.90
2022-08-03T06:08:48.860Z,4.43
2022-08-03T06:14:12.503Z,4.43
2022-08-03T06:19:36.197Z,4.88
2022-08-03T06:25:04.072Z,4.40
2022-08-03T06:30:28.816Z,4.37
2022-08-03T06:35:52.531Z,4.53
2022-08-03T06:41:17.740Z,4.20
2022-08-03T06:46:42.359Z,4.55
2022-08-03T06:52:07.059Z,4.45
2022-08-03T06:57:32.231Z,4.70
2022-08-03T07:02:58.290Z,4.63
2022-08-03T07:08:33.956Z,4.82
2022-08-03T07:13:59.716Z,4.32
2022-08-03T07:19:23.373Z,4.50
2022-08-03T07:24:47.791Z,4.85
2022-08-03T07:30:13.804Z,4.60
2022-08-03T07:35:37.505Z,4.55
2022-08-03T07:41:01.183Z,4.32
2022-08-03T07:46:26.756Z,4.65
2022-08-03T07:52:11.244Z,4.25
2022-08-03T07:57:35.283Z,4.93
2022-08-03T08:03:00.437Z,4.15
2022-08-03T08:08:24.043Z,4.25
2022-08-03T08:13:47.668Z,4.55
2022-08-03T08:19:14.689Z,4.18
2022-08-03T08:24:38.326Z,4.38
2022-08-03T08:30:11.427Z,4.53
2022-08-03T08:35:38.325Z,4.25
2022-08-03T08:41:02.819Z,4.22
2022-08-03T08:46:26.543Z,4.00
2022-08-03T08:52:01.039Z,4.03
2022-08-03T08:57:42.349Z,4.00
2022-08-03T09:03:07.163Z,4.43
2022-08-03T09:08:33.483Z,3.78
2022-08-03T09:13:57.168Z,3.92
2022-08-03T09:19:20.790Z,3.45
2022-08-03T09:25:22.761Z,3.92
2022-08-03T09:30:44.060Z,4.32
2022-08-03T09:36:08.009Z,3.92
2022-08-03T09:41:33.218Z,3.13
2022-08-03T09:46:57.553Z,3.83
2022-08-03T09:52:33.196Z,3.60
2022-08-03T09:58:09.192Z,3.28
2022-08-03T10:03:36.081Z,3.28
2022-08-03T10:09:19.876Z,3.58
2022-08-03T10:14:45.728Z,3.20
2022-08-03T10:20:11.268Z,3.50
2022-08-03T10:25:36.807Z,3.20
2022-08-03T10:31:03.246Z,3.00
2022-08-03T10:36:31.631Z,2.92
2022-08-03T10:41:59.863Z,3.50
2022-08-03T10:47:27.880Z,3.42
2022-08-03T10:52:56.601Z,3.38
2022-08-03T10:58:57.231Z,2.75
2022-08-03T11:04:24.456Z,3.38
2022-08-03T11:09:49.779Z,2.72
2022-08-03T11:15:13.575Z,2.80
2022-08-03T11:20:52.175Z,2.67
2022-08-03T11:26:17.763Z,2.55
2022-08-03T11:31:51.618Z,2.70
2022-08-03T11:37:28.823Z,2.35
2022-08-03T11:42:55.169Z,2.80
2022-08-03T11:48:20.730Z,2.65
2022-08-03T11:53:47.794Z,2.58
2022-08-03T11:59:20.638Z,2.57
2022-08-03T12:04:52.260Z,2.20
2022-08-03T12:10:17.305Z,2.40
2022-08-03T12:15:41.086Z,2.00
2022-08-03T12:21:08.231Z,2.30
2022-08-03T12:26:54.499Z,2.30
2022-08-03T12:32:23.399Z,2.35
2022-08-03T12:37:49.736Z,2.55
2022-08-03T12:43:16.063Z,2.40
2022-08-03T12:49:04.826Z,2.25
2022-08-03T12:54:32.511Z,2.17
2022-08-03T13:05:46.379Z,2.00
2022-08-03T13:11:20.974Z,2.10
2022-08-03T13:16:45.952Z,2.10
2022-08-03T13:22:13.565Z,2.30
2022-08-03T13:28:03.447Z,2.00
2022-08-03T13:33:22.201Z,2.67
2022-08-03T13:38:45.925Z,2.50
2022-08-03T13:44:29.326Z,2.53
2022-08-03T13:50:01.226Z,2.55
2022-08-03T13:55:26.832Z,2.10
2022-08-03T14:00:50.544Z,2.17
2022-08-03T14:06:15.815Z,2.25
2022-08-03T14:12:03.960Z,2.60
2022-08-03T14:17:23.870Z,2.38
2022-08-03T14:22:49.079Z,2.47
2022-08-03T14:28:12.809Z,2.05
2022-08-03T14:33:36.493Z,2.60
2022-08-03T14:39:02.173Z,2.55
2022-08-03T14:44:25.863Z,2.25
2022-08-03T14:50:37.087Z,2.63
2022-08-03T14:55:38.028Z,2.47
2022-08-03T15:01:02.689Z,2.30
2022-08-03T15:06:46.340Z,2.60
2022-08-03T15:12:16.489Z,2.58
2022-08-03T15:17:42.855Z,2.63
2022-08-03T15:23:06.723Z,2.30
2022-08-03T15:28:32.000Z,2.50
2022-08-03T15:33:55.719Z,2.35
2022-08-03T15:39:19.518Z,2.30
2022-08-03T15:44:44.604Z,2.10
2022-08-03T15:50:09.881Z,2.15
2022-08-03T15:55:33.845Z,2.33
2022-08-03T16:00:59.057Z,2.63
2022-08-03T16:06:29.769Z,2.88
2022-08-03T16:11:59.866Z,2.45
2022-08-03T16:17:25.095Z,2.17
2022-08-03T16:22:49.719Z,2.20
2022-08-03T16:28:14.605Z,2.63
2022-08-03T16:33:40.220Z,2.08
2022-08-03T16:39:04.000Z,2.40
2022-08-03T16:44:28.684Z,2.20
2022-08-03T16:49:56.445Z,2.50
2022-08-03T16:55:43.480Z,2.45
2022-08-03T17:01:20.988Z,2.63
2022-08-03T17:06:48.391Z,2.85
2022-08-03T17:12:13.688Z,2.53
2022-08-03T17:17:47.589Z,3.05
2022-08-03T17:23:35.570Z,2.40
2022-08-03T17:29:12.932Z,2.75
2022-08-03T17:34:37.380Z,2.75
2022-08-03T17:40:03.951Z,3.20
2022-08-03T17:45:52.003Z,3.70
2022-08-03T17:51:17.912Z,2.80
2022-08-03T17:56:50.249Z,2.83
2022-08-03T18:02:51.484Z,2.70
2022-08-03T18:08:24.879Z,3.40
2022-08-03T18:14:03.080Z,3.30
2022-08-03T18:20:00.897Z,3.40
2022-08-03T18:25:49.078Z,3.10
2022-08-03T18:31:07.807Z,2.72
2022-08-03T18:36:32.701Z,3.60
2022-08-03T18:41:59.238Z,3.80
2022-08-03T18:47:52.270Z,3.13
2022-08-03T18:53:19.828Z,3.70
2022-08-03T18:59:02.300Z,3.47
2022-08-03T19:04:34.475Z,3.50
2022-08-03T19:10:03.841Z,3.65
2022-08-03T19:15:36.586Z,4.30
2022-08-03T19:21:15.496Z,3.40
2022-08-03T19:26:41.339Z,3.58
2022-08-03T19:32:07.769Z,3.88
2022-08-03T19:37:40.082Z,4.07
2022-08-03T19:43:11.003Z,3.80
2022-08-03T19:48:44.051Z,3.40
2022-08-03T19:54:13.900Z,3.50
2022-08-03T20:05:15.216Z,3.40
2022-08-03T20:10:40.922Z,3.95
2022-08-03T20:16:06.844Z,3.58
2022-08-03T20:21:35.018Z,3.90
2022-08-03T20:27:07.840Z,3.47
2022-08-03T20:32:31.872Z,4.03
2022-08-03T20:37:56.409Z,3.13
2022-08-03T20:43:24.393Z,4.03
2022-08-03T20:48:52.015Z,3.70
2022-08-03T20:54:28.680Z,3.83
2022-08-03T20:59:56.569Z,3.15
2022-08-03T21:05:21.152Z,4.32
2022-08-03T21:10:59.088Z,3.63
2022-08-03T21:16:31.056Z,3.20
2022-08-03T21:21:56.445Z,3.08
2022-08-03T21:27:21.325Z,2.88
2022-08-03T21:32:48.661Z,3.28
2022-08-03T21:38:29.857Z,3.35
2022-08-03T21:43:53.970Z,3.17
2022-08-03T21:50:07.081Z,3.17
2022-08-03T21:55:06.731Z,2.88
2022-08-03T22:00:30.513Z,2.60
2022-08-03T22:06:04.682Z,3.17
2022-08-03T22:11:29.091Z,2.88
2022-08-03T22:16:52.797Z,2.55
2022-08-03T22:22:19.687Z,2.45
2022-08-03T22:27:45.622Z,2.42
2022-08-03T22:33:12.052Z,2.75
2022-08-03T22:38:37.410Z,2.45
2022-08-03T22:44:04.551Z,2.08
2022-08-03T22:49:30.027Z,2.65
2022-08-03T22:54:56.079Z,2.25
2022-08-03T23:00:19.846Z,2.38
2022-08-03T23:06:00.875Z,2.92
2022-08-03T23:11:29.597Z,2.88
2022-08-03T23:16:56.462Z,2.33
2022-08-03T23:22:30.320Z,2.70
2022-08-03T23:28:05.532Z,2.60
2022-08-03T23:33:31.775Z,2.25
2022-08-03T23:38:56.220Z,2.63
2022-08-03T23:44:23.093Z,2.85
2022-08-03T23:49:46.915Z,2.35
2022-08-03T23:55:28.759Z,2.13
